createdAt,value
2019-01-16T00:00:37.617Z,23.50
2019-01-16T00:01:37.642Z,19.90
2019-01-16T00:02:37.664Z,24.20
2019-01-16T00:03:37.690Z,23.60
2019-01-16T00:04:37.764Z,18.30
2019-01-16T00:05:37.742Z,19.90
2019-01-16T00:06:37.779Z,19.00
2019-01-16T00:07:37.789Z,19.30
2019-01-16T00:08:37.815Z,19.60
2019-01-16T00:09:37.839Z,17.20
2019-01-16T00:10:37.865Z,16.80
2019-01-16T00:11:37.889Z,22.80
2019-01-16T00:12:37.914Z,21.60
2019-01-16T00:13:37.941Z,17.50
2019-01-16T00:14:37.964Z,18.10
2019-01-16T00:15:37.989Z,18.10
2019-01-16T00:16:38.016Z,25.60
2019-01-16T00:17:38.038Z,19.80
2019-01-16T00:18:38.065Z,18.60
2019-01-16T00:19:38.089Z,22.30
2019-01-16T00:20:38.114Z,24.30
2019-01-16T00:21:38.140Z,22.20
2019-01-16T00:22:38.166Z,17.30
2019-01-16T00:23:38.186Z,23.00
2019-01-16T00:24:38.211Z,22.30
2019-01-16T00:25:38.237Z,22.40
2019-01-16T00:26:38.262Z,23.40
2019-01-16T00:27:38.286Z,21.70
2019-01-16T00:28:38.312Z,18.60
2019-01-16T00:29:38.335Z,22.20
2019-01-16T00:30:38.362Z,16.60
2019-01-16T00:31:38.383Z,25.50
2019-01-16T00:32:38.409Z,20.80
2019-01-16T00:33:38.434Z,33.20
2019-01-16T00:34:38.459Z,24.80
2019-01-16T00:35:38.482Z,24.30
2019-01-16T00:36:38.507Z,25.30
2019-01-16T00:37:38.531Z,21.70
2019-01-16T00:38:38.556Z,24.40
2019-01-16T00:39:38.581Z,29.10
2019-01-16T00:40:38.606Z,21.80
2019-01-16T00:41:38.630Z,22.40
2019-01-16T00:42:38.654Z,18.90
2019-01-16T00:43:38.678Z,25.90
2019-01-16T00:44:38.702Z,23.90
2019-01-16T00:45:38.728Z,22.70
2019-01-16T00:46:38.751Z,19.60
2019-01-16T00:47:38.777Z,18.40
2019-01-16T00:48:38.800Z,23.30
2019-01-16T00:49:38.826Z,20.90
2019-01-16T00:50:38.847Z,22.80
2019-01-16T00:51:38.873Z,20.60
2019-01-16T00:52:38.898Z,18.50
2019-01-16T00:53:38.922Z,22.80
2019-01-16T00:54:38.946Z,18.50
2019-01-16T00:55:38.969Z,17.20
2019-01-16T00:56:38.998Z,17.80
2019-01-16T00:57:39.019Z,18.60
2019-01-16T00:58:39.044Z,23.70
2019-01-16T00:59:39.067Z,19.50
2019-01-16T01:00:39.090Z,19.60
2019-01-16T01:01:39.115Z,18.70
2019-01-16T01:02:39.142Z,19.30
2019-01-16T01:03:39.167Z,20.10
2019-01-16T01:04:39.187Z,20.80
2019-01-16T01:05:39.212Z,20.10
2019-01-16T01:06:39.236Z,22.80
2019-01-16T01:07:39.260Z,23.50
2019-01-16T01:08:39.283Z,23.20
2019-01-16T01:09:39.309Z,22.80
2019-01-16T01:10:39.334Z,22.00
2019-01-16T01:11:39.357Z,23.60
2019-01-16T01:12:39.381Z,26.50
2019-01-16T01:13:39.409Z,24.10
2019-01-16T01:14:39.428Z,23.10
2019-01-16T01:15:39.452Z,30.80
2019-01-16T01:16:39.478Z,17.10
2019-01-16T01:17:39.502Z,23.60
2019-01-16T01:18:41.018Z,22.30
2019-01-16T01:19:39.549Z,19.90
2019-01-16T01:20:39.573Z,29.60
2019-01-16T01:21:39.597Z,24.50
2019-01-16T01:22:39.622Z,30.00
2019-01-16T01:23:39.645Z,26.50
2019-01-16T01:24:39.669Z,25.80
2019-01-16T01:25:39.694Z,26.40
2019-01-16T01:26:39.718Z,27.70
2019-01-16T01:27:39.743Z,26.90
2019-01-16T01:28:39.765Z,27.40
2019-01-16T01:29:39.789Z,25.00
2019-01-16T01:30:39.811Z,21.30
2019-01-16T01:31:39.834Z,23.10
2019-01-16T01:32:39.859Z,26.60
2019-01-16T01:33:39.883Z,20.60
2019-01-16T01:34:39.910Z,24.30
2019-01-16T01:35:39.931Z,18.60
2019-01-16T01:36:39.954Z,23.40
2019-01-16T01:37:40.049Z,23.70
2019-01-16T01:38:40.053Z,29.60
2019-01-16T01:39:40.027Z,21.00
2019-01-16T01:40:40.049Z,23.90
2019-01-16T01:41:40.072Z,25.00
2019-01-16T01:42:40.096Z,19.50
2019-01-16T01:43:40.120Z,28.70
2019-01-16T01:44:40.154Z,21.70
2019-01-16T01:45:40.168Z,25.00
2019-01-16T01:46:40.190Z,23.60
2019-01-16T01:47:40.215Z,23.10
2019-01-16T01:48:40.390Z,21.90
2019-01-16T01:49:40.263Z,28.20
2019-01-16T01:50:40.286Z,25.40
2019-01-16T01:51:40.308Z,19.30
2019-01-16T01:52:40.332Z,23.40
2019-01-16T01:53:40.356Z,19.20
2019-01-16T01:54:40.379Z,25.40
2019-01-16T01:55:40.402Z,20.40
2019-01-16T01:56:40.427Z,22.20
2019-01-16T01:57:40.450Z,20.00
2019-01-16T01:58:40.525Z,30.90
2019-01-16T01:59:40.495Z,25.70
2019-01-16T02:00:40.520Z,23.00
2019-01-16T02:01:40.547Z,27.60
2019-01-16T02:02:40.567Z,27.40
2019-01-16T02:03:40.590Z,27.80
2019-01-16T02:04:40.613Z,23.70
2019-01-16T02:05:40.640Z,23.80
2019-01-16T02:06:40.660Z,28.90
2019-01-16T02:07:40.683Z,32.10
2019-01-16T02:08:40.710Z,28.00
2019-01-16T02:09:40.730Z,31.60
2019-01-16T02:10:40.753Z,30.70
2019-01-16T02:11:40.780Z,28.60
2019-01-16T02:12:40.801Z,43.00
2019-01-16T02:13:40.824Z,29.90
2019-01-16T02:14:40.847Z,32.30
2019-01-16T02:15:40.868Z,42.10
2019-01-16T02:16:40.893Z,38.50
2019-01-16T02:17:40.916Z,38.70
2019-01-16T02:18:47.292Z,38.20
2019-01-16T02:19:40.962Z,43.40
2019-01-16T02:20:40.989Z,39.10
2019-01-16T02:21:41.012Z,35.40
2019-01-16T02:22:41.031Z,40.10
2019-01-16T02:23:41.055Z,31.70
2019-01-16T02:24:41.077Z,40.30
2019-01-16T02:25:41.102Z,50.40
2019-01-16T02:26:41.125Z,43.00
2019-01-16T02:27:41.147Z,46.10
2019-01-16T02:28:41.170Z,41.40
2019-01-16T02:29:41.194Z,34.80
2019-01-16T02:30:41.219Z,35.60
2019-01-16T02:31:41.239Z,38.40
2019-01-16T02:32:41.266Z,39.70
2019-01-16T02:33:41.285Z,34.20
2019-01-16T02:34:41.310Z,38.80
2019-01-16T02:35:41.331Z,35.10
2019-01-16T02:36:41.405Z,39.50
2019-01-16T02:37:41.379Z,34.70
2019-01-16T02:38:41.402Z,42.60
2019-01-16T02:39:41.425Z,37.00
2019-01-16T02:40:41.446Z,31.90
2019-01-16T02:41:41.471Z,33.30
2019-01-16T02:42:41.502Z,41.00
2019-01-16T02:43:41.515Z,35.20
2019-01-16T02:44:41.538Z,32.70
2019-01-16T02:45:41.561Z,31.80
2019-01-16T02:46:41.585Z,31.80
2019-01-16T02:47:41.608Z,35.70
2019-01-16T02:48:41.632Z,36.50
2019-01-16T02:49:41.653Z,27.70
2019-01-16T02:50:41.679Z,33.70
2019-01-16T02:51:41.699Z,32.40
2019-01-16T02:52:41.722Z,31.40
2019-01-16T02:53:41.746Z,27.10
2019-01-16T02:54:41.768Z,29.50
2019-01-16T02:55:41.791Z,29.00
2019-01-16T02:56:41.817Z,31.70
2019-01-16T02:57:41.837Z,34.10
2019-01-16T02:58:41.859Z,40.20
2019-01-16T02:59:41.885Z,35.30
2019-01-16T03:00:41.906Z,38.60
2019-01-16T03:01:41.932Z,38.50
2019-01-16T03:02:41.951Z,53.20
2019-01-16T03:03:41.974Z,66.00
2019-01-16T03:04:42.052Z,43.40
2019-01-16T03:05:42.021Z,38.50
2019-01-16T03:06:42.079Z,36.70
2019-01-16T03:07:42.066Z,41.80
2019-01-16T03:08:42.088Z,35.40
2019-01-16T03:09:42.115Z,41.10
2019-01-16T03:10:42.134Z,69.10
2019-01-16T03:11:42.157Z,46.90
2019-01-16T03:12:42.178Z,46.90
2019-01-16T03:13:42.201Z,48.80
2019-01-16T03:14:42.234Z,50.10
2019-01-16T03:15:42.247Z,36.40
2019-01-16T03:16:42.271Z,41.00
2019-01-16T03:17:42.292Z,39.80
2019-01-16T03:18:42.318Z,31.10
2019-01-16T03:19:42.341Z,28.10
2019-01-16T03:20:42.361Z,31.10
2019-01-16T03:21:42.383Z,26.70
2019-01-16T03:22:42.406Z,29.20
2019-01-16T03:23:42.428Z,26.40
2019-01-16T03:24:42.452Z,26.70
2019-01-16T03:25:42.484Z,22.50
2019-01-16T03:26:42.499Z,34.50
2019-01-16T03:27:42.521Z,33.60
2019-01-16T03:28:42.541Z,32.10
2019-01-16T03:29:42.565Z,34.10
2019-01-16T03:30:42.592Z,26.20
2019-01-16T03:31:42.612Z,32.20
2019-01-16T03:32:42.643Z,29.50
2019-01-16T03:33:42.658Z,31.90
2019-01-16T03:34:42.679Z,23.90
2019-01-16T03:35:42.702Z,33.30
2019-01-16T03:36:42.727Z,25.80
2019-01-16T03:37:42.746Z,30.90
2019-01-16T03:38:42.771Z,30.40
2019-01-16T03:39:42.792Z,35.70
2019-01-16T03:40:42.814Z,27.50
2019-01-16T03:41:42.839Z,27.50
2019-01-16T03:42:42.861Z,24.10
2019-01-16T03:43:42.884Z,22.50
2019-01-16T03:44:42.908Z,28.20
2019-01-16T03:45:42.931Z,26.90
2019-01-16T03:46:42.951Z,26.00
2019-01-16T03:47:42.973Z,28.70
2019-01-16T03:48:42.997Z,32.30
2019-01-16T03:49:43.023Z,31.50
2019-01-16T03:50:43.048Z,31.40
2019-01-16T03:51:43.069Z,33.30
2019-01-16T03:52:43.087Z,30.50
2019-01-16T03:53:43.110Z,27.50
2019-01-16T03:54:43.137Z,30.50
2019-01-16T03:55:43.154Z,24.90
2019-01-16T03:56:43.180Z,26.90
2019-01-16T03:57:43.201Z,31.70
2019-01-16T03:58:43.226Z,24.80
2019-01-16T03:59:43.246Z,29.90
2019-01-16T04:00:43.302Z,23.20
2019-01-16T04:01:43.293Z,25.00
2019-01-16T04:02:43.320Z,25.90
2019-01-16T04:03:43.337Z,31.00
2019-01-16T04:04:43.359Z,24.20
2019-01-16T04:05:43.385Z,28.30
2019-01-16T04:06:43.407Z,22.80
2019-01-16T04:07:43.429Z,29.20
2019-01-16T04:08:43.453Z,26.70
2019-01-16T04:09:43.473Z,24.80
2019-01-16T04:10:43.496Z,26.30
2019-01-16T04:11:43.520Z,28.90
2019-01-16T04:12:43.540Z,28.00
2019-01-16T04:13:43.614Z,29.50
2019-01-16T04:14:43.645Z,27.50
2019-01-16T04:15:43.608Z,26.20
2019-01-16T04:16:43.633Z,24.40
2019-01-16T04:17:43.656Z,30.00
2019-01-16T04:18:43.678Z,25.80
2019-01-16T04:19:43.701Z,24.20
2019-01-16T04:20:43.722Z,21.70
2019-01-16T04:21:43.746Z,23.90
2019-01-16T04:22:43.768Z,27.20
2019-01-16T04:23:43.790Z,24.50
2019-01-16T04:24:43.813Z,22.80
2019-01-16T04:25:43.836Z,27.00
2019-01-16T04:26:43.859Z,24.20
2019-01-16T04:27:43.880Z,25.70
2019-01-16T04:28:43.905Z,25.70
2019-01-16T04:29:43.927Z,21.30
2019-01-16T04:30:43.951Z,25.00
2019-01-16T04:31:43.973Z,25.40
2019-01-16T04:32:43.995Z,30.40
2019-01-16T04:33:44.019Z,25.60
2019-01-16T04:34:44.041Z,22.40
2019-01-16T04:35:44.063Z,22.20
2019-01-16T04:36:44.087Z,26.30
2019-01-16T04:37:44.109Z,21.30
2019-01-16T04:38:44.132Z,22.10
2019-01-16T04:39:44.153Z,24.60
2019-01-16T04:40:44.180Z,27.90
2019-01-16T04:41:44.199Z,25.10
2019-01-16T04:42:44.226Z,29.80
2019-01-16T04:43:44.246Z,25.00
2019-01-16T04:44:44.269Z,27.30
2019-01-16T04:45:44.295Z,23.50
2019-01-16T04:46:44.315Z,28.30
2019-01-16T04:47:44.337Z,27.00
2019-01-16T04:48:44.359Z,28.50
2019-01-16T04:49:44.392Z,29.90
2019-01-16T04:50:44.406Z,20.60
2019-01-16T04:51:44.428Z,23.90
2019-01-16T04:52:44.451Z,25.30
2019-01-16T04:53:44.473Z,25.70
2019-01-16T04:54:44.496Z,29.90
2019-01-16T04:55:44.517Z,27.60
2019-01-16T04:56:44.540Z,24.90
2019-01-16T04:57:44.566Z,25.00
2019-01-16T04:58:44.592Z,29.80
2019-01-16T04:59:44.607Z,25.10
2019-01-16T05:00:44.631Z,21.60
2019-01-16T05:01:44.656Z,23.40
2019-01-16T05:02:44.728Z,28.20
2019-01-16T05:03:44.700Z,26.70
2019-01-16T05:04:44.722Z,23.70
2019-01-16T05:05:44.744Z,25.60
2019-01-16T05:06:44.768Z,26.40
2019-01-16T05:07:44.790Z,28.50
2019-01-16T05:08:44.812Z,24.70
2019-01-16T05:09:44.836Z,28.60
2019-01-16T05:10:44.861Z,32.60
2019-01-16T05:11:44.883Z,33.90
2019-01-16T05:12:44.923Z,25.90
2019-01-16T05:13:44.927Z,27.90
2019-01-16T05:14:44.951Z,23.30
2019-01-16T05:15:44.970Z,24.00
2019-01-16T05:16:44.993Z,25.70
2019-01-16T05:17:45.017Z,29.10
2019-01-16T05:18:45.040Z,25.70
2019-01-16T05:19:45.062Z,20.90
2019-01-16T05:20:45.085Z,30.50
2019-01-16T05:21:45.107Z,28.40
2019-01-16T05:22:45.129Z,27.20
2019-01-16T05:23:45.153Z,27.20
2019-01-16T05:24:45.176Z,28.50
2019-01-16T05:25:45.198Z,23.90
2019-01-16T05:26:45.220Z,24.50
2019-01-16T05:27:45.245Z,29.10
2019-01-16T05:28:45.265Z,27.70
2019-01-16T05:29:45.289Z,23.70
2019-01-16T05:30:45.311Z,26.20
2019-01-16T05:31:45.333Z,27.20
2019-01-16T05:32:45.358Z,22.30
2019-01-16T05:33:45.380Z,25.80
2019-01-16T05:34:45.402Z,29.70
2019-01-16T05:35:45.425Z,29.30
2019-01-16T05:36:45.450Z,29.20
2019-01-16T05:37:45.474Z,26.40
2019-01-16T05:38:45.492Z,25.50
2019-01-16T05:39:45.514Z,23.60
2019-01-16T05:40:45.537Z,27.30
2019-01-16T05:41:45.560Z,21.90
2019-01-16T05:42:45.585Z,19.80
2019-01-16T05:43:45.606Z,25.80
2019-01-16T05:44:45.628Z,25.00
2019-01-16T05:45:45.657Z,21.00
2019-01-16T05:46:45.673Z,21.60
2019-01-16T05:47:45.696Z,26.70
2019-01-16T05:48:45.730Z,25.40
2019-01-16T05:49:46.737Z,28.10
2019-01-16T05:50:45.763Z,32.20
2019-01-16T05:51:45.788Z,27.50
2019-01-16T05:52:45.809Z,23.90
2019-01-16T05:53:45.831Z,31.90
2019-01-16T05:54:45.854Z,28.30
2019-01-16T05:55:45.876Z,27.80
2019-01-16T05:56:45.898Z,28.20
2019-01-16T05:57:45.920Z,28.70
2019-01-16T05:58:45.945Z,24.40
2019-01-16T05:59:45.968Z,25.20
2019-01-16T06:00:45.991Z,26.10
2019-01-16T06:01:46.013Z,22.40
2019-01-16T06:02:46.040Z,22.90
2019-01-16T06:03:46.058Z,27.00
2019-01-16T06:04:46.080Z,27.70
2019-01-16T06:05:46.104Z,23.40
2019-01-16T06:06:46.125Z,28.50
2019-01-16T06:07:46.147Z,29.70
2019-01-16T06:08:46.171Z,25.00
2019-01-16T06:09:46.192Z,28.50
2019-01-16T06:10:46.219Z,27.40
2019-01-16T06:11:46.236Z,25.70
2019-01-16T06:12:46.260Z,25.40
2019-01-16T06:13:46.283Z,28.30
2019-01-16T06:14:46.305Z,22.30
2019-01-16T06:15:46.327Z,26.80
2019-01-16T06:16:46.350Z,23.80
2019-01-16T06:17:46.372Z,27.60
2019-01-16T06:18:46.397Z,27.90
2019-01-16T06:19:46.417Z,24.70
2019-01-16T06:20:46.439Z,28.40
2019-01-16T06:21:46.463Z,26.70
2019-01-16T06:22:46.489Z,27.60
2019-01-16T06:23:46.506Z,26.70
2019-01-16T06:24:46.530Z,24.90
2019-01-16T06:25:46.553Z,38.40
2019-01-16T06:26:46.583Z,44.80
2019-01-16T06:27:46.598Z,38.10
2019-01-16T06:28:46.623Z,40.10
2019-01-16T06:29:46.644Z,56.60
2019-01-16T06:30:46.666Z,52.10
2019-01-16T06:31:46.689Z,47.50
2019-01-16T06:32:46.711Z,64.70
2019-01-16T06:33:46.736Z,57.10
2019-01-16T06:34:46.769Z,49.20
2019-01-16T06:35:46.785Z,30.80
2019-01-16T06:36:46.801Z,32.00
2019-01-16T06:37:46.825Z,32.40
2019-01-16T06:38:46.848Z,27.00
2019-01-16T06:39:46.868Z,31.80
2019-01-16T06:40:46.892Z,29.30
2019-01-16T06:41:46.916Z,28.70
2019-01-16T06:42:46.938Z,30.80
2019-01-16T06:43:46.958Z,25.00
2019-01-16T06:44:46.982Z,29.00
2019-01-16T06:45:47.005Z,26.30
2019-01-16T06:46:47.030Z,26.00
2019-01-16T06:47:47.049Z,26.90
2019-01-16T06:48:47.074Z,23.10
2019-01-16T06:49:47.096Z,27.20
2019-01-16T06:50:47.120Z,25.10
2019-01-16T06:51:47.139Z,26.10
2019-01-16T06:52:47.163Z,22.60
2019-01-16T06:53:47.191Z,25.10
2019-01-16T06:54:47.210Z,20.80
2019-01-16T06:55:47.230Z,21.00
2019-01-16T06:56:47.255Z,19.60
2019-01-16T06:57:47.277Z,20.40
2019-01-16T06:58:47.298Z,19.10
2019-01-16T06:59:47.322Z,20.40
2019-01-16T07:00:47.343Z,19.20
2019-01-16T07:01:47.367Z,21.20
2019-01-16T07:02:47.389Z,19.70
2019-01-16T07:03:47.412Z,22.30
2019-01-16T07:04:47.435Z,19.60
2019-01-16T07:05:47.457Z,21.70
2019-01-16T07:06:47.480Z,20.20
2019-01-16T07:07:47.501Z,23.30
2019-01-16T07:08:47.524Z,21.80
2019-01-16T07:09:47.547Z,21.00
2019-01-16T07:10:47.570Z,25.40
2019-01-16T07:11:47.593Z,21.60
2019-01-16T07:12:47.617Z,23.60
2019-01-16T07:13:47.637Z,22.80
2019-01-16T07:14:47.658Z,19.00
2019-01-16T07:15:47.682Z,16.90
2019-01-16T07:16:47.705Z,16.20
2019-01-16T07:17:47.727Z,20.60
2019-01-16T07:18:47.750Z,19.80
2019-01-16T07:19:47.772Z,23.00
2019-01-16T07:20:47.797Z,24.30
2019-01-16T07:21:47.817Z,29.90
2019-01-16T07:22:47.840Z,29.40
2019-01-16T07:23:47.863Z,24.00
2019-01-16T07:24:47.885Z,25.30
2019-01-16T07:25:47.909Z,26.30
2019-01-16T07:26:47.932Z,29.00
2019-01-16T07:27:47.953Z,29.60
2019-01-16T07:28:47.976Z,33.00
2019-01-16T07:29:47.998Z,29.60
2019-01-16T07:30:48.021Z,27.30
2019-01-16T07:31:48.043Z,32.00
2019-01-16T07:32:48.067Z,32.00
2019-01-16T07:33:48.089Z,28.90
2019-01-16T07:34:48.111Z,24.10
2019-01-16T07:35:48.134Z,25.40
2019-01-16T07:36:48.157Z,24.90
2019-01-16T07:37:48.178Z,31.60
2019-01-16T07:38:48.203Z,25.00
2019-01-16T07:39:48.247Z,29.30
2019-01-16T07:40:48.247Z,28.30
2019-01-16T07:41:48.276Z,26.50
2019-01-16T07:42:48.308Z,26.10
2019-01-16T07:43:48.315Z,30.00
2019-01-16T07:44:48.338Z,29.20
2019-01-16T07:45:48.360Z,27.80
2019-01-16T07:46:48.535Z,24.50
2019-01-16T07:47:48.406Z,24.10
2019-01-16T07:48:48.428Z,24.30
2019-01-16T07:49:48.451Z,23.80
2019-01-16T07:50:48.479Z,27.40
2019-01-16T07:51:48.498Z,30.60
2019-01-16T07:52:48.519Z,34.70
2019-01-16T07:53:48.542Z,27.70
2019-01-16T07:54:48.567Z,27.50
2019-01-16T07:55:48.589Z,19.90
2019-01-16T07:56:48.611Z,24.70
2019-01-16T07:57:48.636Z,29.10
2019-01-16T07:58:48.657Z,29.00
2019-01-16T07:59:48.680Z,30.80
2019-01-16T08:00:48.705Z,29.40
2019-01-16T08:01:48.725Z,27.50
2019-01-16T08:02:48.750Z,25.10
2019-01-16T08:03:48.775Z,29.00
2019-01-16T08:04:48.797Z,22.50
2019-01-16T08:05:48.852Z,21.20
2019-01-16T08:06:48.843Z,30.00
2019-01-16T08:07:48.865Z,24.40
2019-01-16T08:08:48.889Z,28.30
2019-01-16T08:09:48.912Z,26.70
2019-01-16T08:10:48.937Z,25.80
2019-01-16T08:11:48.960Z,20.20
2019-01-16T08:12:48.984Z,26.40
2019-01-16T08:13:49.006Z,23.80
2019-01-16T08:14:49.028Z,25.80
2019-01-16T08:15:49.105Z,29.40
2019-01-16T08:16:49.076Z,22.50
2019-01-16T08:17:49.100Z,26.00
2019-01-16T08:18:49.124Z,25.50
2019-01-16T08:19:49.148Z,34.00
2019-01-16T08:20:49.170Z,31.60
2019-01-16T08:21:49.193Z,34.50
2019-01-16T08:22:49.215Z,29.40
2019-01-16T08:23:49.239Z,27.60
2019-01-16T08:24:49.263Z,32.00
2019-01-16T08:25:49.284Z,28.70
2019-01-16T08:26:49.311Z,27.70
2019-01-16T08:27:49.331Z,23.90
2019-01-16T08:28:49.354Z,25.60
2019-01-16T08:29:49.378Z,26.60
2019-01-16T08:30:49.402Z,26.30
2019-01-16T08:31:49.426Z,23.70
2019-01-16T08:32:49.447Z,26.20
2019-01-16T08:33:49.472Z,26.30
2019-01-16T08:34:49.498Z,28.20
2019-01-16T08:35:49.518Z,30.30
2019-01-16T08:36:49.552Z,32.80
2019-01-16T08:37:49.565Z,25.30
2019-01-16T08:38:49.588Z,28.80
2019-01-16T08:39:49.612Z,26.30
2019-01-16T08:40:49.635Z,27.10
2019-01-16T08:41:49.660Z,22.90
2019-01-16T08:42:49.684Z,24.30
2019-01-16T08:43:49.706Z,23.00
2019-01-16T08:44:49.733Z,21.20
2019-01-16T08:45:49.755Z,19.80
2019-01-16T08:46:49.781Z,20.30
2019-01-16T08:47:49.804Z,26.90
2019-01-16T08:48:49.830Z,27.30
2019-01-16T08:49:49.852Z,23.70
2019-01-16T08:50:49.880Z,22.60
2019-01-16T08:51:49.904Z,32.20
2019-01-16T08:52:51.881Z,21.30
2019-01-16T08:53:49.955Z,25.20
2019-01-16T08:54:49.980Z,23.80
2019-01-16T08:55:50.005Z,25.90
2019-01-16T08:56:50.031Z,21.30
2019-01-16T08:57:50.061Z,32.30
2019-01-16T08:58:50.085Z,28.30
2019-01-16T08:59:50.111Z,20.70
2019-01-16T09:00:50.139Z,23.50
2019-01-16T09:01:50.165Z,26.80
2019-01-16T09:02:50.192Z,23.60
2019-01-16T09:03:50.218Z,21.10
2019-01-16T09:04:50.247Z,20.80
2019-01-16T09:05:50.275Z,21.20
2019-01-16T09:06:50.299Z,23.10
2019-01-16T09:07:50.325Z,24.70
2019-01-16T09:08:50.360Z,29.70
2019-01-16T09:09:50.383Z,21.60
2019-01-16T09:10:50.411Z,17.30
2019-01-16T09:11:50.439Z,17.80
2019-01-16T09:12:50.472Z,20.40
2019-01-16T09:13:50.496Z,20.30
2019-01-16T09:14:50.529Z,19.90
2019-01-16T09:15:50.554Z,24.90
2019-01-16T09:16:50.581Z,19.10
2019-01-16T09:17:50.613Z,16.00
2019-01-16T09:18:50.640Z,19.50
2019-01-16T09:19:50.671Z,22.00
2019-01-16T09:20:50.700Z,20.10
2019-01-16T09:21:50.732Z,24.60
2019-01-16T09:22:50.760Z,18.80
2019-01-16T09:23:50.792Z,22.30
2019-01-16T09:24:50.821Z,18.40
2019-01-16T09:25:50.854Z,16.90
2019-01-16T09:26:50.884Z,22.70
2019-01-16T09:27:50.913Z,21.20
2019-01-16T09:28:50.947Z,19.60
2019-01-16T09:29:50.977Z,13.70
2019-01-16T09:30:51.009Z,13.40
2019-01-16T09:31:51.039Z,21.70
2019-01-16T09:32:51.073Z,14.90
2019-01-16T09:33:51.104Z,14.30
2019-01-16T09:34:51.136Z,17.10
2019-01-16T09:35:51.168Z,15.40
2019-01-16T09:36:51.200Z,12.50
2019-01-16T09:37:51.230Z,14.00
2019-01-16T09:38:51.264Z,14.10
2019-01-16T09:39:51.295Z,15.30
2019-01-16T09:40:51.332Z,15.60
2019-01-16T09:41:51.360Z,14.50
2019-01-16T09:42:51.394Z,18.80
2019-01-16T09:43:51.424Z,14.70
2019-01-16T09:44:51.457Z,19.40
2019-01-16T09:45:51.541Z,15.00
2019-01-16T09:46:51.522Z,14.20
2019-01-16T09:47:51.598Z,14.70
2019-01-16T09:48:51.587Z,25.20
2019-01-16T09:49:51.621Z,17.30
2019-01-16T09:50:51.652Z,18.20
2019-01-16T09:51:51.685Z,15.10
2019-01-16T09:52:51.725Z,20.40
2019-01-16T09:53:51.751Z,21.30
2019-01-16T09:54:51.784Z,30.20
2019-01-16T09:55:51.819Z,28.60
2019-01-16T09:56:51.852Z,29.50
2019-01-16T09:57:51.932Z,25.00
2019-01-16T09:58:51.916Z,21.30
2019-01-16T09:59:51.950Z,24.80
2019-01-16T10:00:51.983Z,20.50
2019-01-16T10:01:52.017Z,28.60
2019-01-16T10:02:52.050Z,54.70
2019-01-16T10:03:52.334Z,44.10
2019-01-16T10:04:52.116Z,44.90
2019-01-16T10:05:52.171Z,41.60
2019-01-16T10:06:52.187Z,40.90
2019-01-16T10:07:52.221Z,34.70
2019-01-16T10:08:52.258Z,38.40
2019-01-16T10:09:52.289Z,30.20
2019-01-16T10:10:52.326Z,28.50
2019-01-16T10:11:52.360Z,27.70
2019-01-16T10:12:52.398Z,32.00
2019-01-16T10:13:52.429Z,27.70
2019-01-16T10:14:52.467Z,25.10
2019-01-16T10:15:52.502Z,99.40
2019-01-16T10:16:52.547Z,86.30
2019-01-16T10:17:52.572Z,54.80
2019-01-16T10:18:52.613Z,39.80
2019-01-16T10:19:52.644Z,24.40
2019-01-16T10:20:55.761Z,21.50
2019-01-16T10:21:52.713Z,22.60
2019-01-16T10:22:52.752Z,20.70
2019-01-16T10:23:52.788Z,19.10
2019-01-16T10:24:52.823Z,16.50
2019-01-16T10:25:52.857Z,17.90
2019-01-16T10:26:52.894Z,16.40
2019-01-16T10:27:52.930Z,15.60
2019-01-16T10:28:52.965Z,19.40
2019-01-16T10:29:53.002Z,16.10
2019-01-16T10:30:53.040Z,15.00
2019-01-16T10:31:53.078Z,12.90
2019-01-16T10:32:53.110Z,15.00
2019-01-16T10:33:53.147Z,13.90
2019-01-16T10:34:53.185Z,11.80
2019-01-16T10:35:53.224Z,11.50
2019-01-16T10:36:53.262Z,12.70
2019-01-16T10:37:53.293Z,15.70
2019-01-16T10:38:53.332Z,12.70
2019-01-16T10:39:53.365Z,11.00
2019-01-16T10:40:53.403Z,10.80
2019-01-16T10:41:53.440Z,15.60
2019-01-16T10:42:53.478Z,11.20
2019-01-16T10:43:53.511Z,12.10
2019-01-16T10:44:53.549Z,12.20
2019-01-16T10:45:53.585Z,11.90
2019-01-16T10:46:53.625Z,9.60
2019-01-16T10:47:53.658Z,12.70
2019-01-16T10:48:53.694Z,11.40
2019-01-16T10:49:53.731Z,12.10
2019-01-16T10:50:53.773Z,13.20
2019-01-16T10:51:53.803Z,10.30
2019-01-16T10:52:53.839Z,15.30
2019-01-16T10:53:53.876Z,18.30
2019-01-16T10:54:53.913Z,11.90
2019-01-16T10:55:53.947Z,9.80
2019-01-16T10:56:53.984Z,9.90
2019-01-16T10:57:54.020Z,8.60
2019-01-16T10:58:54.055Z,11.50
2019-01-16T10:59:54.142Z,10.10
2019-01-16T11:00:54.125Z,9.20
2019-01-16T11:01:54.162Z,8.90
2019-01-16T11:02:54.197Z,9.60
2019-01-16T11:03:54.232Z,8.90
2019-01-16T11:04:54.268Z,11.10
2019-01-16T11:05:54.354Z,7.50
2019-01-16T11:06:54.340Z,7.40
2019-01-16T11:07:54.374Z,7.60
2019-01-16T11:08:54.409Z,9.40
2019-01-16T11:09:54.447Z,11.80
2019-01-16T11:10:54.484Z,7.20
2019-01-16T11:11:54.518Z,7.10
2019-01-16T11:12:54.555Z,7.70
2019-01-16T11:13:54.590Z,9.00
2019-01-16T11:14:54.627Z,8.70
2019-01-16T11:15:54.677Z,10.00
2019-01-16T11:16:56.817Z,9.40
2019-01-16T11:17:54.736Z,6.50
2019-01-16T11:18:56.326Z,7.10
2019-01-16T11:19:54.809Z,6.30
2019-01-16T11:20:54.847Z,6.40
2019-01-16T11:21:54.885Z,8.20
2019-01-16T11:22:54.921Z,9.40
2019-01-16T11:23:54.959Z,8.30
2019-01-16T11:24:54.997Z,7.90
2019-01-16T11:25:55.034Z,7.50
2019-01-16T11:26:55.122Z,9.50
2019-01-16T11:27:55.111Z,7.00
2019-01-16T11:28:55.149Z,8.60
2019-01-16T11:29:55.188Z,10.80
2019-01-16T11:30:55.226Z,6.00
2019-01-16T11:31:55.266Z,9.90
2019-01-16T11:32:55.305Z,7.00
2019-01-16T11:33:55.341Z,10.20
2019-01-16T11:34:55.384Z,10.30
2019-01-16T11:35:55.418Z,9.90
2019-01-16T11:36:55.456Z,9.30
2019-01-16T11:37:55.496Z,9.70
2019-01-16T11:38:55.535Z,13.40
2019-01-16T11:39:55.573Z,14.30
2019-01-16T11:40:55.610Z,8.30
2019-01-16T11:41:55.646Z,14.40
2019-01-16T11:42:55.808Z,11.70
2019-01-16T11:43:55.722Z,15.20
2019-01-16T11:44:55.758Z,13.20
2019-01-16T11:45:55.797Z,11.30
2019-01-16T11:46:55.833Z,13.70
2019-01-16T11:47:55.871Z,13.10
2019-01-16T11:48:55.910Z,12.40
2019-01-16T11:49:55.945Z,13.00
2019-01-16T11:50:55.984Z,11.70
2019-01-16T11:51:56.024Z,11.60
2019-01-16T11:52:56.059Z,10.70
2019-01-16T11:53:56.097Z,12.00
2019-01-16T11:54:56.135Z,9.70
2019-01-16T11:55:56.172Z,11.80
2019-01-16T11:56:56.212Z,9.80
2019-01-16T11:57:56.250Z,9.80
2019-01-16T11:58:56.289Z,9.60
2019-01-16T11:59:56.326Z,9.60
2019-01-16T12:00:56.365Z,9.40
2019-01-16T12:01:56.404Z,10.80
2019-01-16T12:02:56.444Z,9.20
2019-01-16T12:03:56.482Z,10.50
2019-01-16T12:04:56.522Z,14.00
2019-01-16T12:05:56.559Z,10.60
2019-01-16T12:06:56.600Z,9.50
2019-01-16T12:07:56.637Z,14.10
2019-01-16T12:08:56.677Z,10.70
2019-01-16T12:09:56.715Z,11.10
2019-01-16T12:10:56.755Z,9.10
2019-01-16T12:11:56.793Z,10.20
2019-01-16T12:12:56.832Z,13.00
2019-01-16T12:13:56.873Z,13.50
2019-01-16T12:14:56.910Z,19.20
2019-01-16T12:15:56.948Z,13.80
2019-01-16T12:16:56.988Z,13.10
2019-01-16T12:17:57.027Z,11.40
2019-01-16T12:18:57.064Z,22.90
2019-01-16T12:19:57.102Z,12.60
2019-01-16T12:20:57.141Z,12.40
2019-01-16T12:21:57.179Z,12.80
2019-01-16T12:22:57.219Z,12.10
2019-01-16T12:23:57.255Z,14.00
2019-01-16T12:24:57.293Z,12.00
2019-01-16T12:25:57.332Z,10.60
2019-01-16T12:26:57.368Z,13.70
2019-01-16T12:27:57.407Z,17.30
2019-01-16T12:28:57.444Z,13.10
2019-01-16T12:29:57.483Z,10.40
2019-01-16T12:30:57.522Z,12.90
2019-01-16T12:31:57.558Z,15.60
2019-01-16T12:32:57.595Z,14.40
2019-01-16T12:33:57.632Z,11.20
2019-01-16T12:34:57.669Z,11.00
2019-01-16T12:35:57.706Z,14.60
2019-01-16T12:36:57.740Z,12.20
2019-01-16T12:37:57.779Z,13.40
2019-01-16T12:38:57.814Z,11.40
2019-01-16T12:39:57.851Z,12.50
2019-01-16T12:40:57.888Z,13.20
2019-01-16T12:41:59.750Z,12.00
2019-01-16T12:42:57.961Z,12.30
2019-01-16T12:43:57.996Z,12.90
2019-01-16T12:44:58.033Z,13.60
2019-01-16T12:45:58.070Z,16.00
2019-01-16T12:46:58.108Z,16.70
2019-01-16T12:47:58.142Z,12.00
2019-01-16T12:48:58.179Z,16.50
2019-01-16T12:49:58.216Z,14.20
2019-01-16T12:50:58.252Z,12.80
2019-01-16T12:51:58.289Z,14.20
2019-01-16T12:52:58.325Z,11.50
2019-01-16T12:53:58.364Z,13.40
2019-01-16T12:54:58.402Z,16.70